createdAt,value
2018-09-21T00:00:57.868Z,1009.07
2018-09-21T00:01:57.933Z,1009.11
2018-09-21T00:02:57.897Z,1009.03
2018-09-21T00:03:57.906Z,1009.11
2018-09-21T00:04:57.924Z,1009.10
2018-09-21T00:05:57.941Z,1009.04
2018-09-21T00:06:57.955Z,1009.01
2018-09-21T00:07:57.996Z,1009.02
2018-09-21T00:08:57.998Z,1009.00
2018-09-21T00:09:58.008Z,1009.02
2018-09-21T00:10:58.024Z,1008.97
2018-09-21T00:11:58.042Z,1008.88
2018-09-21T00:12:58.053Z,1008.97
2018-09-21T00:13:58.094Z,1008.98
2018-09-21T00:14:58.083Z,1009.01
2018-09-21T00:15:58.097Z,1008.93
2018-09-21T00:16:58.113Z,1008.94
2018-09-21T00:17:58.136Z,1008.91
2018-09-21T00:18:58.149Z,1008.96
2018-09-21T00:19:58.203Z,1008.96
2018-09-21T00:20:58.183Z,1008.95
2018-09-21T00:21:58.198Z,1008.92
2018-09-21T00:22:58.209Z,1008.99
2018-09-21T00:23:58.225Z,1008.99
2018-09-21T00:24:58.243Z,1008.96
2018-09-21T00:25:58.309Z,1008.94
2018-09-21T00:26:58.273Z,1008.98
2018-09-21T00:27:58.293Z,1008.95
2018-09-21T00:28:58.303Z,1008.95
2018-09-21T00:29:58.326Z,1008.96
2018-09-21T00:30:58.342Z,1008.95
2018-09-21T00:31:58.449Z,1008.99
2018-09-21T00:32:58.371Z,1008.95
2018-09-21T00:33:58.386Z,1008.94
2018-09-21T00:34:58.398Z,1008.95
2018-09-21T00:35:58.418Z,1008.98
2018-09-21T00:36:58.433Z,1008.93
2018-09-21T00:37:58.506Z,1008.93
2018-09-21T00:38:58.463Z,1008.97
2018-09-21T00:39:58.477Z,1008.94
2018-09-21T00:40:58.494Z,1008.92
2018-09-21T00:41:58.511Z,1008.97
2018-09-21T00:42:58.524Z,1008.90
2018-09-21T00:43:58.583Z,1008.97
2018-09-21T00:44:58.558Z,1008.98
2018-09-21T00:45:58.669Z,1008.98
2018-09-21T00:46:58.594Z,1009.00
2018-09-21T00:47:58.609Z,1008.98
2018-09-21T00:48:58.632Z,1008.99
2018-09-21T00:49:58.662Z,1009.01
2018-09-21T00:50:58.645Z,1009.01
2018-09-21T00:51:58.674Z,1009.00
2018-09-21T00:52:58.690Z,1008.97
2018-09-21T00:53:58.702Z,1008.96
2018-09-21T00:54:58.716Z,1008.98
2018-09-21T00:55:58.731Z,1009.02
2018-09-21T00:56:58.751Z,1009.00
2018-09-21T00:57:58.767Z,1009.00
2018-09-21T00:58:58.774Z,1009.03
2018-09-21T00:59:58.789Z,1008.99
2018-09-21T01:00:58.807Z,1009.02
2018-09-21T01:01:58.826Z,1009.01
2018-09-21T01:02:58.845Z,1009.00
2018-09-21T01:03:58.858Z,1009.05
2018-09-21T01:04:58.868Z,1008.98
2018-09-21T01:05:58.883Z,1009.05
2018-09-21T01:06:58.905Z,1008.97
2018-09-21T01:07:58.913Z,1008.93
2018-09-21T01:08:58.949Z,1009.00
2018-09-21T01:09:58.950Z,1008.92
2018-09-21T01:10:58.967Z,1008.97
2018-09-21T01:11:58.982Z,1008.91
2018-09-21T01:12:58.992Z,1008.90
2018-09-21T01:13:59.022Z,1008.87
2018-09-21T01:14:59.030Z,1008.83
2018-09-21T01:15:59.053Z,1008.79
2018-09-21T01:16:59.064Z,1008.75
2018-09-21T01:17:59.076Z,1008.73
2018-09-21T01:18:59.102Z,1008.81
2018-09-21T01:19:59.107Z,1008.82
2018-09-21T01:20:59.128Z,1008.74
2018-09-21T01:21:59.143Z,1008.75
2018-09-21T01:22:59.152Z,1008.69
2018-09-21T01:23:59.174Z,1008.70
2018-09-21T01:24:59.193Z,1008.70
2018-09-21T01:25:59.203Z,1008.67
2018-09-21T01:26:59.212Z,1008.61
2018-09-21T01:27:59.274Z,1008.61
2018-09-21T01:28:59.253Z,1008.61
2018-09-21T01:29:59.262Z,1008.58
2018-09-21T01:30:59.281Z,1008.59
2018-09-21T01:31:59.292Z,1008.55
2018-09-21T01:32:59.321Z,1008.58
2018-09-21T01:33:59.352Z,1008.57
2018-09-21T01:34:59.343Z,1008.52
2018-09-21T01:35:59.363Z,1008.52
2018-09-21T01:36:59.382Z,1008.50
2018-09-21T01:37:59.397Z,1008.52
2018-09-21T01:38:59.408Z,1008.49
2018-09-21T01:39:59.458Z,1008.47
2018-09-21T01:40:59.439Z,1008.46
2018-09-21T01:41:59.454Z,1008.47
2018-09-21T01:42:59.476Z,1008.50
2018-09-21T01:43:59.488Z,1008.43
2018-09-21T01:44:59.513Z,1008.49
2018-09-21T01:45:59.561Z,1008.46
2018-09-21T01:46:59.530Z,1008.46
2018-09-21T01:47:59.549Z,1008.48
2018-09-21T01:48:59.570Z,1008.46
2018-09-21T01:49:59.581Z,1008.47
2018-09-21T01:50:59.602Z,1008.44
2018-09-21T01:51:59.625Z,1008.41
2018-09-21T01:52:59.628Z,1008.43
2018-09-21T01:53:59.644Z,1008.39
2018-09-21T01:54:59.659Z,1008.47
2018-09-21T01:55:59.677Z,1008.41
2018-09-21T01:56:59.693Z,1008.41
2018-09-21T01:57:59.701Z,1008.37
2018-09-21T01:58:59.716Z,1008.37
2018-09-21T01:59:59.740Z,1008.34
2018-09-21T02:00:59.749Z,1008.35
2018-09-21T02:01:59.771Z,1008.36
2018-09-21T02:02:59.785Z,1008.37
2018-09-21T02:03:59.833Z,1008.29
2018-09-21T02:04:59.816Z,1008.34
2018-09-21T02:05:59.840Z,1008.35
2018-09-21T02:06:59.846Z,1008.36
2018-09-21T02:07:59.867Z,1008.37
2018-09-21T02:08:59.884Z,1008.38
2018-09-21T02:10:01.856Z,1008.34
2018-09-21T02:10:59.910Z,1008.32
2018-09-21T02:11:59.930Z,1008.33
2018-09-21T02:12:59.946Z,1008.35
2018-09-21T02:13:59.957Z,1008.34
2018-09-21T02:14:59.975Z,1008.32
2018-09-21T02:16:00.044Z,1008.36
2018-09-21T02:17:00.013Z,1008.33
2018-09-21T02:18:00.029Z,1008.38
2018-09-21T02:19:00.042Z,1008.37
2018-09-21T02:20:00.054Z,1008.35
2018-09-21T02:21:00.066Z,1008.35
2018-09-21T02:22:00.185Z,1008.40
2018-09-21T02:23:00.106Z,1008.37
2018-09-21T02:24:00.114Z,1008.34
2018-09-21T02:25:00.137Z,1008.33
2018-09-21T02:26:00.155Z,1008.32
2018-09-21T02:27:00.168Z,1008.32
2018-09-21T02:28:00.219Z,1008.27
2018-09-21T02:29:00.206Z,1008.28
2018-09-21T02:30:00.232Z,1008.25
2018-09-21T02:31:00.231Z,1008.28
2018-09-21T02:32:00.240Z,1008.28
2018-09-21T02:33:00.260Z,1008.34
2018-09-21T02:34:00.307Z,1008.31
2018-09-21T02:35:00.297Z,1008.31
2018-09-21T02:36:00.314Z,1008.35
2018-09-21T02:37:00.332Z,1008.29
2018-09-21T02:38:00.343Z,1008.24
2018-09-21T02:39:00.352Z,1008.27
2018-09-21T02:40:00.411Z,1008.30
2018-09-21T02:41:00.392Z,1008.30
2018-09-21T02:42:00.401Z,1008.35
2018-09-21T02:43:00.420Z,1008.33
2018-09-21T02:44:00.435Z,1008.31
2018-09-21T02:45:00.463Z,1008.31
2018-09-21T02:46:00.465Z,1008.34
2018-09-21T02:47:00.482Z,1008.27
2018-09-21T02:48:00.510Z,1008.26
2018-09-21T02:49:00.535Z,1008.29
2018-09-21T02:50:00.555Z,1008.27
2018-09-21T02:51:00.561Z,1008.28
2018-09-21T02:52:00.569Z,1008.31
2018-09-21T02:53:00.592Z,1008.27
2018-09-21T02:54:00.601Z,1008.27
2018-09-21T02:55:00.617Z,1008.22
2018-09-21T02:56:00.626Z,1008.21
2018-09-21T02:57:00.636Z,1008.24
2018-09-21T02:58:00.675Z,1008.19
2018-09-21T02:59:00.688Z,1008.23
2018-09-21T03:00:00.691Z,1008.24
2018-09-21T03:01:00.810Z,1008.24
2018-09-21T03:02:00.722Z,1008.16
2018-09-21T03:03:00.741Z,1008.13
2018-09-21T03:04:00.753Z,1008.13
2018-09-21T03:05:00.774Z,1008.08
2018-09-21T03:06:00.831Z,1008.14
2018-09-21T03:07:00.802Z,1008.17
2018-09-21T03:08:00.823Z,1008.17
2018-09-21T03:09:00.838Z,1008.14
2018-09-21T03:10:00.843Z,1008.08
2018-09-21T03:11:00.866Z,1008.11
2018-09-21T03:12:00.877Z,1008.13
2018-09-21T03:13:00.891Z,1008.15
2018-09-21T03:14:00.913Z,1008.18
2018-09-21T03:15:00.929Z,1008.21
2018-09-21T03:16:00.999Z,1008.19
2018-09-21T03:17:00.965Z,1008.23
2018-09-21T03:18:01.011Z,1008.28
2018-09-21T03:19:00.990Z,1008.24
2018-09-21T03:20:00.999Z,1008.29
2018-09-21T03:21:01.021Z,1008.26
2018-09-21T03:22:01.040Z,1008.30
2018-09-21T03:23:01.076Z,1008.25
2018-09-21T03:24:01.067Z,1008.31
2018-09-21T03:25:01.076Z,1008.31
2018-09-21T03:26:01.091Z,1008.32
2018-09-21T03:27:01.116Z,1008.27
2018-09-21T03:28:01.130Z,1008.23
2018-09-21T03:29:01.196Z,1008.21
2018-09-21T03:30:01.161Z,1008.23
2018-09-21T03:31:01.172Z,1008.19
2018-09-21T03:32:01.188Z,1008.16
2018-09-21T03:33:01.211Z,1008.19
2018-09-21T03:34:01.229Z,1008.22
2018-09-21T03:35:01.267Z,1008.21
2018-09-21T03:36:01.262Z,1008.16
2018-09-21T03:37:01.276Z,1008.20
2018-09-21T03:38:01.286Z,1008.19
2018-09-21T03:39:01.306Z,1008.16
2018-09-21T03:40:01.315Z,1008.19
2018-09-21T03:41:01.338Z,1008.19
2018-09-21T03:42:01.356Z,1008.22
2018-09-21T03:43:01.359Z,1008.24
2018-09-21T03:44:01.396Z,1008.27
2018-09-21T03:45:01.399Z,1008.25
2018-09-21T03:46:01.410Z,1008.33
2018-09-21T03:47:01.537Z,1008.35
2018-09-21T03:48:01.450Z,1008.40
2018-09-21T03:49:01.463Z,1008.37
2018-09-21T03:50:01.484Z,1008.42
2018-09-21T03:51:01.493Z,1008.36
2018-09-21T03:52:01.513Z,1008.39
2018-09-21T03:53:01.521Z,1008.37
2018-09-21T03:54:01.540Z,1008.34
2018-09-21T03:55:01.560Z,1008.36
2018-09-21T03:56:01.566Z,1008.35
2018-09-21T03:57:01.584Z,1008.42
2018-09-21T03:58:01.599Z,1008.41
2018-09-21T03:59:01.652Z,1008.42
2018-09-21T04:00:01.643Z,1008.47
2018-09-21T04:01:01.659Z,1008.50
2018-09-21T04:02:01.667Z,1008.49
2018-09-21T04:03:01.683Z,1008.53
2018-09-21T04:04:01.699Z,1008.52
2018-09-21T04:05:01.716Z,1008.48
2018-09-21T04:06:01.737Z,1008.48
2018-09-21T04:07:01.748Z,1008.48
2018-09-21T04:08:01.765Z,1008.50
2018-09-21T04:09:01.771Z,1008.53
2018-09-21T04:10:01.787Z,1008.49
2018-09-21T04:11:01.812Z,1008.50
2018-09-21T04:12:01.819Z,1008.52
2018-09-21T04:13:01.837Z,1008.44
2018-09-21T04:14:01.865Z,1008.45
2018-09-21T04:15:01.862Z,1008.41
2018-09-21T04:16:01.883Z,1008.38
2018-09-21T04:17:01.897Z,1008.37
2018-09-21T04:18:01.917Z,1008.31
2018-09-21T04:19:01.933Z,1008.30
2018-09-21T04:20:01.981Z,1008.27
2018-09-21T04:21:01.957Z,1008.29
2018-09-21T04:22:01.984Z,1008.31
2018-09-21T04:23:02.061Z,1008.29
2018-09-21T04:24:02.005Z,1008.29
2018-09-21T04:25:02.035Z,1008.32
2018-09-21T04:26:02.050Z,1008.29
2018-09-21T04:27:02.054Z,1008.28
2018-09-21T04:28:02.070Z,1008.31
2018-09-21T04:29:02.089Z,1008.34
2018-09-21T04:30:02.175Z,1008.31
2018-09-21T04:31:02.116Z,1008.32
2018-09-21T04:32:02.143Z,1008.31
2018-09-21T04:33:02.192Z,1008.33
2018-09-21T04:34:02.179Z,1008.30
2018-09-21T04:35:02.181Z,1008.38
2018-09-21T04:36:02.285Z,1008.38
2018-09-21T04:37:02.213Z,1008.37
2018-09-21T04:38:02.224Z,1008.38
2018-09-21T04:39:02.345Z,1008.35
2018-09-21T04:40:02.267Z,1008.33
2018-09-21T04:41:02.273Z,1008.35
2018-09-21T04:42:02.292Z,1008.37
2018-09-21T04:43:02.306Z,1008.33
2018-09-21T04:44:02.320Z,1008.30
2018-09-21T04:45:02.336Z,1008.32
2018-09-21T04:46:02.354Z,1008.28
2018-09-21T04:47:02.370Z,1008.33
2018-09-21T04:48:02.394Z,1008.33
2018-09-21T04:49:02.406Z,1008.34
2018-09-21T04:50:02.423Z,1008.34
2018-09-21T04:51:02.437Z,1008.42
2018-09-21T04:52:02.470Z,1008.35
2018-09-21T04:53:02.467Z,1008.35
2018-09-21T04:54:02.480Z,1008.45
2018-09-21T04:55:02.496Z,1008.46
2018-09-21T04:56:02.509Z,1008.46
2018-09-21T04:57:02.521Z,1008.45
2018-09-21T04:58:02.542Z,1008.51
2018-09-21T04:59:02.556Z,1008.54
2018-09-21T05:00:02.569Z,1008.49
2018-09-21T05:01:02.594Z,1008.45
2018-09-21T05:02:02.601Z,1008.50
2018-09-21T05:03:02.633Z,1008.55
2018-09-21T05:04:02.636Z,1008.49
2018-09-21T05:05:02.650Z,1008.51
2018-09-21T05:06:02.665Z,1008.52
2018-09-21T05:07:02.680Z,1008.52
2018-09-21T05:08:02.699Z,1008.57
2018-09-21T05:09:02.720Z,1008.60
2018-09-21T05:10:02.737Z,1008.58
2018-09-21T05:11:02.747Z,1008.60
2018-09-21T05:12:02.756Z,1008.54
2018-09-21T05:13:02.774Z,1008.59
2018-09-21T05:14:02.793Z,1008.55
2018-09-21T05:15:02.811Z,1008.53
2018-09-21T05:16:02.824Z,1008.51
2018-09-21T05:17:02.847Z,1008.57
2018-09-21T05:18:02.929Z,1008.49
2018-09-21T05:19:02.868Z,1008.54
2018-09-21T05:20:02.878Z,1008.53
2018-09-21T05:21:02.911Z,1008.48
2018-09-21T05:22:02.923Z,1008.54
2018-09-21T05:23:02.933Z,1008.51
2018-09-21T05:24:02.997Z,1008.53
2018-09-21T05:25:02.968Z,1008.46
2018-09-21T05:26:02.983Z,1008.51
2018-09-21T05:27:02.993Z,1008.49
2018-09-21T05:28:03.012Z,1008.49
2018-09-21T05:29:03.028Z,1008.45
2018-09-21T05:30:03.132Z,1008.47
2018-09-21T05:31:03.053Z,1008.50
2018-09-21T05:32:03.075Z,1008.58
2018-09-21T05:33:03.097Z,1008.47
2018-09-21T05:34:03.122Z,1008.56
2018-09-21T05:35:03.176Z,1008.51
2018-09-21T05:36:03.136Z,1008.47
2018-09-21T05:37:03.145Z,1008.54
2018-09-21T05:38:03.166Z,1008.53
2018-09-21T05:39:03.178Z,1008.56
2018-09-21T05:40:03.194Z,1008.56
2018-09-21T05:41:03.212Z,1008.59
2018-09-21T05:42:03.226Z,1008.51
2018-09-21T05:43:03.242Z,1008.54
2018-09-21T05:44:03.260Z,1008.59
2018-09-21T05:45:03.277Z,1008.51
2018-09-21T05:46:03.294Z,1008.59
2018-09-21T05:47:03.364Z,1008.61
2018-09-21T05:48:03.319Z,1008.64
2018-09-21T05:49:03.334Z,1008.64
2018-09-21T05:50:03.353Z,1008.61
2018-09-21T05:51:03.369Z,1008.61
2018-09-21T05:52:03.385Z,1008.66
2018-09-21T05:53:03.402Z,1008.67
2018-09-21T05:54:03.421Z,1008.67
2018-09-21T05:55:03.445Z,1008.72
2018-09-21T05:56:03.498Z,1008.69
2018-09-21T05:57:03.464Z,1008.64
2018-09-21T05:58:03.476Z,1008.69
2018-09-21T05:59:03.486Z,1008.70
2018-09-21T06:00:03.503Z,1008.72
2018-09-21T06:01:03.529Z,1008.70
2018-09-21T06:02:03.547Z,1008.73
2018-09-21T06:03:03.557Z,1008.67
2018-09-21T06:04:03.567Z,1008.73
2018-09-21T06:05:03.594Z,1008.75
2018-09-21T06:06:03.596Z,1008.74
2018-09-21T06:07:03.617Z,1008.74
2018-09-21T06:08:03.701Z,1008.81
2018-09-21T06:09:03.649Z,1008.81
2018-09-21T06:10:03.664Z,1008.84
2018-09-21T06:11:03.689Z,1008.80
2018-09-21T06:12:03.702Z,1008.77
2018-09-21T06:13:03.741Z,1008.77
2018-09-21T06:14:03.824Z,1008.76
2018-09-21T06:15:03.739Z,1008.77
2018-09-21T06:16:03.757Z,1008.78
2018-09-21T06:17:03.774Z,1008.78
2018-09-21T06:18:03.787Z,1008.77
2018-09-21T06:19:03.804Z,1008.68
2018-09-21T06:20:11.978Z,1008.70
2018-09-21T06:21:03.862Z,1008.70
2018-09-21T06:22:03.859Z,1008.67
2018-09-21T06:23:03.918Z,1008.67
2018-09-21T06:24:03.879Z,1008.74
2018-09-21T06:25:03.901Z,1008.66
2018-09-21T06:26:03.944Z,1008.77
2018-09-21T06:27:03.933Z,1008.68
2018-09-21T06:28:03.946Z,1008.81
2018-09-21T06:29:03.955Z,1008.77
2018-09-21T06:30:03.982Z,1008.81
2018-09-21T06:31:03.991Z,1008.84
2018-09-21T06:32:04.029Z,1008.86
2018-09-21T06:33:04.019Z,1008.87
2018-09-21T06:34:04.038Z,1008.94
2018-09-21T06:35:04.051Z,1008.96
2018-09-21T06:36:04.080Z,1008.93
2018-09-21T06:37:04.087Z,1008.95
2018-09-21T06:38:04.106Z,1008.97
2018-09-21T06:39:05.419Z,1008.97
2018-09-21T06:40:04.132Z,1009.02
2018-09-21T06:41:04.195Z,1008.97
2018-09-21T06:42:04.164Z,1008.95
2018-09-21T06:43:04.184Z,1009.08
2018-09-21T06:44:04.195Z,1009.08
2018-09-21T06:45:04.236Z,1009.02
2018-09-21T06:46:04.225Z,1009.06
2018-09-21T06:47:04.236Z,1009.10
2018-09-21T06:48:04.254Z,1009.13
2018-09-21T06:49:04.299Z,1009.08
2018-09-21T06:50:04.294Z,1009.07
2018-09-21T06:51:04.302Z,1009.13
2018-09-21T06:52:04.322Z,1009.17
2018-09-21T06:53:04.337Z,1009.27
2018-09-21T06:54:04.358Z,1009.18
2018-09-21T06:55:04.416Z,1009.20
2018-09-21T06:56:04.397Z,1009.26
2018-09-21T06:57:04.393Z,1009.23
2018-09-21T06:58:04.411Z,1009.23
2018-09-21T06:59:04.426Z,1009.31
2018-09-21T07:00:04.447Z,1009.31
2018-09-21T07:01:04.459Z,1009.33
2018-09-21T07:02:04.551Z,1009.31
2018-09-21T07:03:04.489Z,1009.29
2018-09-21T07:04:04.505Z,1009.30
2018-09-21T07:05:04.528Z,1009.36
2018-09-21T07:06:04.533Z,1009.37
2018-09-21T07:07:04.554Z,1009.38
2018-09-21T07:08:04.569Z,1009.40
2018-09-21T07:09:04.588Z,1009.47
2018-09-21T07:10:04.705Z,1009.46
2018-09-21T07:11:04.612Z,1009.50
2018-09-21T07:12:04.638Z,1009.54
2018-09-21T07:13:04.656Z,1009.50
2018-09-21T07:14:04.671Z,1009.51
2018-09-21T07:15:04.689Z,1009.52
2018-09-21T07:16:04.700Z,1009.51
2018-09-21T07:17:04.708Z,1009.55
2018-09-21T07:18:04.734Z,1009.56
2018-09-21T07:19:04.737Z,1009.57
2018-09-21T07:20:04.756Z,1009.63
2018-09-21T07:21:04.772Z,1009.61
2018-09-21T07:22:04.786Z,1009.65
2018-09-21T07:23:04.798Z,1009.71
2018-09-21T07:24:04.825Z,1009.68
2018-09-21T07:25:04.841Z,1009.67
2018-09-21T07:26:04.849Z,1009.74
2018-09-21T07:27:04.877Z,1009.68
2018-09-21T07:28:04.885Z,1009.77
2018-09-21T07:29:04.905Z,1009.76
2018-09-21T07:30:04.918Z,1009.72
2018-09-21T07:31:04.939Z,1009.74
2018-09-21T07:32:04.955Z,1009.75
2018-09-21T07:33:04.966Z,1009.74
2018-09-21T07:34:04.977Z,1009.72
2018-09-21T07:35:05.003Z,1009.79
2018-09-21T07:36:05.033Z,1009.79
2018-09-21T07:37:05.040Z,1009.75
2018-09-21T07:38:05.056Z,1009.76
2018-09-21T07:39:05.073Z,1009.87
2018-09-21T07:40:05.087Z,1009.80
2018-09-21T07:41:05.120Z,1009.85
2018-09-21T07:42:05.122Z,1009.89
2018-09-21T07:43:05.236Z,1009.91
2018-09-21T07:44:05.231Z,1009.91
2018-09-21T07:45:06.286Z,1009.94
2018-09-21T07:46:05.203Z,1009.85
2018-09-21T07:47:05.213Z,1009.90
2018-09-21T07:48:05.235Z,1009.98
2018-09-21T07:49:05.319Z,1009.93
2018-09-21T07:50:05.295Z,1009.98
2018-09-21T07:51:05.291Z,1010.01
2018-09-21T07:52:05.300Z,1009.98
2018-09-21T07:53:05.321Z,1009.95
2018-09-21T07:54:05.347Z,1009.95
2018-09-21T07:55:05.359Z,1009.95
2018-09-21T07:56:05.372Z,1009.98
2018-09-21T07:57:05.398Z,1010.05
2018-09-21T07:58:05.410Z,1010.03
2018-09-21T07:59:05.440Z,1010.01
2018-09-21T08:00:05.456Z,1010.00
2018-09-21T08:01:05.472Z,1010.00
2018-09-21T08:02:05.488Z,1009.99
2018-09-21T08:03:05.512Z,1009.96
2018-09-21T08:04:05.523Z,1009.98
2018-09-21T08:05:05.598Z,1009.96
2018-09-21T08:06:05.559Z,1009.95
2018-09-21T08:07:05.643Z,1010.03
2018-09-21T08:08:05.688Z,1009.99
2018-09-21T08:09:05.614Z,1010.00
2018-09-21T08:10:05.637Z,1010.09
2018-09-21T08:11:05.655Z,1010.04
2018-09-21T08:12:05.673Z,1010.07
2018-09-21T08:13:05.694Z,1009.99
2018-09-21T08:14:05.744Z,1010.02
2018-09-21T08:15:05.734Z,1009.93
2018-09-21T08:16:05.744Z,1009.95
2018-09-21T08:17:05.771Z,1009.96
2018-09-21T08:18:05.786Z,1010.02
2018-09-21T08:19:05.811Z,1010.04
2018-09-21T08:20:05.830Z,1009.96
2018-09-21T08:21:05.847Z,1009.99
2018-09-21T08:22:05.871Z,1009.98
2018-09-21T08:23:05.891Z,1009.99
2018-09-21T08:24:05.900Z,1009.98
2018-09-21T08:25:05.989Z,1009.97
2018-09-21T08:26:05.942Z,1009.94
2018-09-21T08:27:06.061Z,1009.93
2018-09-21T08:28:05.974Z,1009.97
2018-09-21T08:29:05.992Z,1009.95
2018-09-21T08:30:06.018Z,1009.96
2018-09-21T08:31:06.038Z,1010.01
2018-09-21T08:32:06.058Z,1010.00
2018-09-21T08:33:06.109Z,1010.00
2018-09-21T08:34:06.095Z,1010.02
2018-09-21T08:35:06.118Z,1010.00
2018-09-21T08:36:06.136Z,1009.99
2018-09-21T08:37:06.171Z,1009.97
2018-09-21T08:38:06.172Z,1009.98
2018-09-21T08:39:07.046Z,1009.98
2018-09-21T08:40:06.211Z,1010.00
2018-09-21T08:41:06.222Z,1010.03
2018-09-21T08:42:06.259Z,1010.02
2018-09-21T08:43:06.275Z,1010.02
2018-09-21T08:44:06.295Z,1010.03
2018-09-21T08:45:06.318Z,1010.05
2018-09-21T08:46:06.329Z,1010.03
2018-09-21T08:47:06.355Z,1010.03
2018-09-21T08:48:06.361Z,1010.06
2018-09-21T08:49:06.392Z,1010.07
2018-09-21T08:50:06.412Z,1010.15
2018-09-21T08:51:06.425Z,1010.09
2018-09-21T08:52:06.446Z,1010.06
2018-09-21T08:53:06.466Z,1010.10
2018-09-21T08:54:06.489Z,1010.11
2018-09-21T08:55:06.508Z,1010.13
2018-09-21T08:56:06.526Z,1010.16
2018-09-21T08:57:06.548Z,1010.15
2018-09-21T08:58:06.568Z,1010.13
2018-09-21T08:59:06.581Z,1010.18
2018-09-21T09:00:06.612Z,1010.18
2018-09-21T09:01:06.629Z,1010.20
2018-09-21T09:02:06.649Z,1010.18
2018-09-21T09:03:06.778Z,1010.15
2018-09-21T09:04:06.697Z,1010.15
2018-09-21T09:05:06.706Z,1010.20
2018-09-21T09:06:06.727Z,1010.21
2018-09-21T09:07:06.757Z,1010.23
2018-09-21T09:08:06.767Z,1010.23
2018-09-21T09:09:06.785Z,1010.20
2018-09-21T09:10:06.807Z,1010.23
2018-09-21T09:11:06.830Z,1010.25
2018-09-21T09:12:06.851Z,1010.30
2018-09-21T09:13:06.867Z,1010.28
2018-09-21T09:14:06.893Z,1010.33
2018-09-21T09:15:06.915Z,1010.33
2018-09-21T09:16:06.928Z,1010.35
2018-09-21T09:17:06.954Z,1010.39
2018-09-21T09:18:06.983Z,1010.41
2018-09-21T09:19:06.995Z,1010.40
2018-09-21T09:20:07.015Z,1010.38
2018-09-21T09:21:07.080Z,1010.37
2018-09-21T09:22:07.050Z,1010.41
2018-09-21T09:23:07.095Z,1010.36
2018-09-21T09:24:07.095Z,1010.38
2018-09-21T09:25:07.150Z,1010.30
2018-09-21T09:26:07.143Z,1010.32
2018-09-21T09:27:07.175Z,1010.30
2018-09-21T09:28:07.183Z,1010.37
2018-09-21T09:29:07.196Z,1010.32
2018-09-21T09:30:07.319Z,1010.34
2018-09-21T09:31:07.242Z,1010.33
2018-09-21T09:32:07.266Z,1010.33
2018-09-21T09:33:07.344Z,1010.33
2018-09-21T09:34:07.305Z,1010.36
2018-09-21T09:35:07.320Z,1010.39
2018-09-21T09:36:07.351Z,1010.38
2018-09-21T09:37:07.375Z,1010.39
2018-09-21T09:38:07.386Z,1010.38
2018-09-21T09:39:07.416Z,1010.40
2018-09-21T09:40:07.429Z,1010.37
2018-09-21T09:41:07.460Z,1010.41
2018-09-21T09:42:07.474Z,1010.41
2018-09-21T09:43:07.595Z,1010.45
2018-09-21T09:44:07.520Z,1010.44
2018-09-21T09:45:07.615Z,1010.45
2018-09-21T09:46:07.555Z,1010.43
2018-09-21T09:47:07.586Z,1010.32
2018-09-21T09:48:07.602Z,1010.40
2018-09-21T09:49:07.688Z,1010.35
2018-09-21T09:50:07.666Z,1010.31
2018-09-21T09:51:07.712Z,1010.32
2018-09-21T09:52:07.687Z,1010.42
2018-09-21T09:53:07.704Z,1010.32
2018-09-21T09:54:07.730Z,1010.32
2018-09-21T09:55:07.758Z,1010.37
2018-09-21T09:56:07.767Z,1010.34
2018-09-21T09:57:07.825Z,1010.33
2018-09-21T09:58:07.817Z,1010.32
2018-09-21T09:59:07.835Z,1010.34
2018-09-21T10:00:07.860Z,1010.34
2018-09-21T10:01:07.874Z,1010.36
2018-09-21T10:02:07.905Z,1010.38
2018-09-21T10:03:07.990Z,1010.35
2018-09-21T10:04:07.962Z,1010.38
2018-09-21T10:05:07.967Z,1010.37
2018-09-21T10:06:07.987Z,1010.46
2018-09-21T10:07:08.015Z,1010.40
2018-09-21T10:08:08.035Z,1010.42
2018-09-21T10:09:08.061Z,1010.42
2018-09-21T10:10:08.074Z,1010.42
2018-09-21T10:11:08.100Z,1010.43
2018-09-21T10:12:08.126Z,1010.36
2018-09-21T10:13:08.139Z,1010.35
2018-09-21T10:14:08.175Z,1010.37
2018-09-21T10:15:08.191Z,1010.41
2018-09-21T10:16:08.208Z,1010.41
2018-09-21T10:17:08.233Z,1010.40
2018-09-21T10:18:08.254Z,1010.39
2018-09-21T10:19:08.283Z,1010.45
2018-09-21T10:20:08.299Z,1010.43
2018-09-21T10:21:08.321Z,1010.40
2018-09-21T10:22:08.392Z,1010.41
2018-09-21T10:23:08.375Z,1010.36
2018-09-21T10:24:08.462Z,1010.43
2018-09-21T10:25:08.405Z,1010.43
2018-09-21T10:26:08.434Z,1010.45
2018-09-21T10:27:08.614Z,1010.43
2018-09-21T10:28:08.712Z,1010.42
2018-09-21T10:29:08.504Z,1010.43
2018-09-21T10:30:08.519Z,1010.42
2018-09-21T10:31:08.548Z,1010.42
2018-09-21T10:32:08.570Z,1010.42
2018-09-21T10:33:08.596Z,1010.44
2018-09-21T10:34:08.616Z,1010.45
2018-09-21T10:35:08.635Z,1010.43
2018-09-21T10:36:08.654Z,1010.42
2018-09-21T10:37:08.697Z,1010.41
2018-09-21T10:38:08.700Z,1010.39
2018-09-21T10:39:08.731Z,1010.45
2018-09-21T10:40:08.916Z,1010.37
2018-09-21T10:41:08.767Z,1010.34
2018-09-21T10:42:08.792Z,1010.34
2018-09-21T10:43:08.879Z,1010.35
2018-09-21T10:44:08.844Z,1010.33
2018-09-21T10:45:08.855Z,1010.33
2018-09-21T10:46:08.939Z,1010.31
2018-09-21T10:47:08.897Z,1010.31
2018-09-21T10:48:08.929Z,1010.29
2018-09-21T10:49:08.947Z,1010.29
2018-09-21T10:50:08.977Z,1010.34
2018-09-21T10:51:09.001Z,1010.32
2018-09-21T10:52:09.024Z,1010.26
2018-09-21T10:53:09.041Z,1010.31
2018-09-21T10:54:09.064Z,1010.31
2018-09-21T10:55:09.080Z,1010.28
2018-09-21T10:56:09.109Z,1010.30
2018-09-21T10:57:09.141Z,1010.25
2018-09-21T10:58:09.160Z,1010.30
2018-09-21T10:59:09.180Z,1010.27
2018-09-21T11:00:09.206Z,1010.27
2018-09-21T11:01:09.224Z,1010.24
2018-09-21T11:02:09.257Z,1010.22
2018-09-21T11:03:09.274Z,1010.21
2018-09-21T11:04:09.298Z,1010.23
2018-09-21T11:05:09.321Z,1010.19
2018-09-21T11:06:09.337Z,1010.24
2018-09-21T11:07:09.383Z,1010.20
2018-09-21T11:08:09.387Z,1010.18
2018-09-21T11:09:09.410Z,1010.18
2018-09-21T11:10:09.433Z,1010.19
2018-09-21T11:11:09.452Z,1010.15
2018-09-21T11:12:09.487Z,1010.13
2018-09-21T11:13:09.552Z,1010.13
2018-09-21T11:14:09.524Z,1010.15
2018-09-21T11:15:09.551Z,1010.14
2018-09-21T11:16:09.571Z,1010.11
2018-09-21T11:17:09.598Z,1010.13
2018-09-21T11:18:09.616Z,1010.13
2018-09-21T11:19:09.643Z,1010.16
2018-09-21T11:20:09.684Z,1010.14
2018-09-21T11:21:09.684Z,1010.11
2018-09-21T11:22:09.710Z,1010.18
2018-09-21T11:23:09.797Z,1010.12
2018-09-21T11:24:09.759Z,1010.14
2018-09-21T11:25:09.786Z,1010.13
2018-09-21T11:26:09.807Z,1010.10
2018-09-21T11:27:09.832Z,1010.12
2018-09-21T11:28:09.850Z,1010.11
2018-09-21T11:29:09.874Z,1010.10
2018-09-21T11:30:09.905Z,1010.04
2018-09-21T11:31:09.927Z,1010.09
2018-09-21T11:32:09.946Z,1010.08
2018-09-21T11:33:10.080Z,1010.06
2018-09-21T11:34:09.993Z,1010.06
2018-09-21T11:35:10.019Z,1010.06
2018-09-21T11:36:10.043Z,1010.07
2018-09-21T11:37:10.067Z,1010.06
2018-09-21T11:38:10.097Z,1010.10
2018-09-21T11:39:10.111Z,1010.08
2018-09-21T11:40:10.155Z,1010.12
2018-09-21T11:41:10.165Z,1010.06
2018-09-21T11:42:10.188Z,1010.07
2018-09-21T11:43:10.209Z,1010.08
2018-09-21T11:44:10.231Z,1010.07
2018-09-21T11:45:10.247Z,1010.04
2018-09-21T11:46:10.298Z,1009.99
2018-09-21T11:47:10.326Z,1010.02
2018-09-21T11:48:10.326Z,1009.98
2018-09-21T11:49:10.354Z,1010.02
2018-09-21T11:50:10.371Z,1010.01
2018-09-21T11:51:10.391Z,1010.00
2018-09-21T11:52:10.424Z,1009.94
2018-09-21T11:53:10.503Z,1009.97
2018-09-21T11:54:10.466Z,1009.90
2018-09-21T11:55:10.492Z,1009.98
2018-09-21T11:56:10.511Z,1009.90
2018-09-21T11:57:10.538Z,1009.90
2018-09-21T11:58:10.564Z,1009.88
2018-09-21T11:59:10.603Z,1009.89
2018-09-21T12:00:10.620Z,1009.88
2018-09-21T12:01:10.635Z,1009.85
2018-09-21T12:02:10.656Z,1009.89
2018-09-21T12:03:10.688Z,1009.88
2018-09-21T12:04:10.704Z,1009.87
2018-09-21T12:05:10.740Z,1009.83
2018-09-21T12:06:10.753Z,1009.78